Time;durP1;ratioP1;P1;durP2;ratioP2;P2;SDS_P1;SDS_P2;PMS_P1;PMS_P2;Temp;Humidity;BMP_temperature;BMP_pressure;BME280_temperature;BME280_humidity;BME280_pressure;Samples;Min_cycle;Max_cycle;Signal;HPM_P1;HPM_P2
2023/04/23 00:01:08;;;;;;;10.30;6.55;;;;;;;20.71;31.33;100363.66;4966353;28;97250;-74
2023/04/23 00:03:37;;;;;;;10.95;6.40;;;;;;;20.59;31.43;100362.88;4967815;28;102132;-73
2023/04/23 00:06:06;;;;;;;12.60;7.32;;;;;;;20.45;32.03;100357.78;4968722;28;97930;-73
2023/04/23 00:08:33;;;;;;;10.07;6.60;;;;;;;20.37;31.83;100357.56;4967336;28;96800;-72
2023/04/23 00:11:00;;;;;;;10.90;6.32;;;;;;;20.32;32.13;100360.59;4968475;28;98625;-74
2023/04/23 00:13:27;;;;;;;11.98;6.60;;;;;;;20.39;31.98;100350.22;4967794;28;99509;-73
2023/04/23 00:15:54;;;;;;;12.30;6.38;;;;;;;20.37;32.47;100353.03;4968019;28;101737;-72
2023/04/23 00:18:21;;;;;;;18.30;7.88;;;;;;;20.29;32.58;100355.47;4968802;28;96784;-72
2023/04/23 00:20:49;;;;;;;13.98;7.65;;;;;;;20.29;32.35;100345.59;4968018;28;98088;-71
2023/04/23 00:23:15;;;;;;;10.40;6.70;;;;;;;20.04;33.03;100345.03;4967775;28;98718;-72
2023/04/23 00:25:42;;;;;;;10.80;7.05;;;;;;;20.28;32.78;100351.91;4967694;28;98847;-72
2023/04/23 00:28:08;;;;;;;14.50;6.93;;;;;;;20.47;32.23;100337.03;4966695;28;98281;-71
2023/04/23 00:30:34;;;;;;;15.15;7.22;;;;;;;20.48;32.59;100344.13;4961012;28;98545;-72
2023/04/23 00:33:01;;;;;;;12.73;5.90;;;;;;;20.40;32.49;100338.53;4957523;28;98227;-72
2023/04/23 00:35:27;;;;;;;12.38;7.15;;;;;;;20.46;32.52;100335.34;4966338;28;99513;-72
2023/04/23 00:37:55;;;;;;;14.77;7.00;;;;;;;20.41;32.67;100333.03;4965973;28;97022;-71
2023/04/23 00:40:22;;;;;;;11.90;7.07;;;;;;;20.27;32.98;100336.84;4964555;28;98535;-73
2023/04/23 00:42:54;;;;;;;14.13;6.75;;;;;;;20.24;32.93;100331.69;4958997;28;98983;-72
2023/04/23 00:45:21;;;;;;;11.10;6.72;;;;;;;20.42;32.59;100333.88;4968492;28;101448;-72
2023/04/23 00:47:48;;;;;;;17.08;7.38;;;;;;;20.35;33.06;100330.00;4966819;28;97468;-72
2023/04/23 00:50:14;;;;;;;13.75;6.80;;;;;;;20.36;32.86;100329.88;4966606;28;96946;-72
2023/04/23 00:52:41;;;;;;;11.68;7.30;;;;;;;20.23;33.31;100335.34;4965073;28;99122;-72
2023/04/23 00:55:09;;;;;;;12.77;6.85;;;;;;;19.97;33.78;100331.25;4966687;28;98904;-73
2023/04/23 00:57:36;;;;;;;12.98;7.20;;;;;;;20.07;33.50;100329.56;4966152;28;96893;-73
2023/04/23 01:00:04;;;;;;;15.02;7.05;;;;;;;20.21;33.40;100321.25;4964502;28;97716;-72
2023/04/23 01:02:31;;;;;;;13.95;7.30;;;;;;;20.24;33.55;100325.47;4965140;28;99164;-72
2023/04/23 01:04:59;;;;;;;10.23;7.03;;;;;;;20.15;33.74;100326.25;4969781;28;101540;-71
2023/04/23 01:07:26;;;;;;;9.35;6.68;;;;;;;20.24;33.28;100320.13;4968589;28;96884;-73
2023/04/23 01:09:53;;;;;;;10.32;7.38;;;;;;;20.11;33.87;100335.50;4966459;28;98774;-72
2023/04/23 01:12:22;;;;;;;13.60;7.65;;;;;;;20.15;33.77;100324.41;4966533;28;98907;-72
2023/04/23 01:14:48;;;;;;;12.93;7.45;;;;;;;20.02;34.09;100320.19;4966715;28;101391;-71
2023/04/23 01:17:15;;;;;;;13.15;7.15;;;;;;;20.10;33.88;100323.94;4966513;28;96778;-72
2023/04/23 01:19:41;;;;;;;13.48;7.28;;;;;;;19.94;34.31;100319.94;4964803;28;97032;-73
2023/04/23 01:22:11;;;;;;;14.95;7.47;;;;;;;20.17;34.01;100313.53;4966384;28;99108;-72
2023/04/23 01:24:37;;;;;;;12.73;7.47;;;;;;;20.47;33.32;100312.88;4968266;28;98717;-74
2023/04/23 01:27:04;;;;;;;17.17;7.65;;;;;;;20.41;33.88;100313.41;4964813;28;97620;-73
2023/04/23 01:29:32;;;;;;;12.30;6.97;;;;;;;20.30;33.92;100315.09;4966278;28;97734;-72
2023/04/23 01:31:59;;;;;;;12.65;7.13;;;;;;;20.16;34.00;100325.25;4962037;28;99433;-73
2023/04/23 01:34:26;;;;;;;10.52;7.15;;;;;;;20.26;34.25;100315.47;4967395;28;99120;-74
2023/04/23 01:36:54;;;;;;;14.35;7.55;;;;;;;20.11;34.41;100320.28;4968891;28;96830;-71
2023/04/23 01:39:22;;;;;;;13.45;7.53;;;;;;;20.37;34.31;100322.66;4968840;28;97101;-72
2023/04/23 01:41:49;;;;;;;11.23;7.30;;;;;;;20.19;34.86;100323.19;4968234;28;99190;-71
2023/04/23 01:44:15;;;;;;;13.25;7.57;;;;;;;20.18;35.48;100326.84;4970433;28;97721;-72
2023/04/23 01:46:42;;;;;;;11.05;7.43;;;;;;;20.21;36.13;100320.38;4969245;28;96850;-71
2023/04/23 01:49:09;;;;;;;12.57;7.10;;;;;;;20.19;36.04;100323.19;4962879;28;96992;-70
2023/04/23 01:51:35;;;;;;;12.68;7.03;;;;;;;20.09;36.41;100314.16;4967181;28;99407;-71
2023/04/23 01:54:02;;;;;;;12.05;7.55;;;;;;;20.33;36.09;100324.78;4966415;28;97992;-71
2023/04/23 01:56:32;;;;;;;11.80;7.07;;;;;;;20.27;36.38;100312.69;4965247;28;96933;-70
2023/04/23 01:58:58;;;;;;;12.10;7.63;;;;;;;19.98;37.18;100324.94;4968220;28;96887;-72
2023/04/23 02:01:25;;;;;;;11.82;7.10;;;;;;;20.18;37.56;100317.94;4967496;28;98379;-71
2023/04/23 02:03:52;;;;;;;11.73;7.03;;;;;;;20.17;38.24;100306.34;4965723;28;99114;-72
2023/04/23 02:06:18;;;;;;;10.75;7.38;;;;;;;20.36;38.50;100311.09;4970738;28;96932;-71
2023/04/23 02:08:45;;;;;;;11.88;7.38;;;;;;;20.33;40.67;100308.66;4970216;28;96902;-70
2023/04/23 02:11:12;;;;;;;11.25;7.30;;;;;;;20.03;42.72;100317.34;4971704;28;102971;-71
2023/04/23 02:13:40;;;;;;;13.68;7.68;;;;;;;19.74;44.48;100306.31;4969073;28;100473;-71
2023/04/23 02:16:07;;;;;;;9.90;7.30;;;;;;;19.74;45.26;100308.16;4971368;28;98427;-71
2023/04/23 02:18:34;;;;;;;16.35;7.72;;;;;;;19.61;47.07;100316.31;4970087;28;96773;-70
2023/04/23 02:21:02;;;;;;;20.27;8.65;;;;;;;19.41;48.07;100307.16;4966048;28;101845;-70
2023/04/23 02:23:28;;;;;;;13.43;8.27;;;;;;;19.69;48.39;100310.34;4967589;28;98823;-71
2023/04/23 02:25:55;;;;;;;18.65;8.70;;;;;;;19.43;50.55;100310.53;4966929;28;97284;-71
2023/04/23 02:28:21;;;;;;;10.77;7.72;;;;;;;19.20;49.65;100298.13;4970592;28;97443;-71
2023/04/23 02:30:49;;;;;;;16.27;7.82;;;;;;;19.53;49.01;100309.84;4970322;28;97829;-71
2023/04/23 02:33:18;;;;;;;13.65;8.05;;;;;;;19.35;51.76;100304.09;4969312;28;99321;-71
2023/04/23 02:35:44;;;;;;;15.50;8.93;;;;;;;19.20;53.50;100313.31;4961575;28;97776;-71
2023/04/23 02:38:11;;;;;;;12.32;8.55;;;;;;;18.91;55.13;100310.22;4966164;28;98201;-71
2023/04/23 02:40:37;;;;;;;11.48;8.95;;;;;;;19.06;54.97;100311.72;4966148;28;99278;-70
2023/04/23 02:43:04;;;;;;;15.05;8.52;;;;;;;18.93;55.76;100310.97;4962779;28;102141;-71
2023/04/23 02:45:30;;;;;;;16.23;8.75;;;;;;;19.06;54.64;100303.69;4964809;28;98809;-70
2023/04/23 02:47:58;;;;;;;12.30;8.18;;;;;;;19.06;54.30;100314.41;4960582;28;97052;-70
2023/04/23 02:50:24;;;;;;;13.48;8.45;;;;;;;19.12;54.91;100311.25;4963741;28;99049;-71
2023/04/23 02:52:51;;;;;;;13.63;8.48;;;;;;;19.01;54.90;100314.75;4967148;28;98734;-72
2023/04/23 02:55:17;;;;;;;13.68;9.00;;;;;;;19.37;54.09;100307.50;4970216;28;98364;-71
2023/04/23 02:57:44;;;;;;;13.60;8.20;;;;;;;19.26;54.96;100308.34;4968673;28;96900;-71
2023/04/23 03:00:12;;;;;;;13.82;7.63;;;;;;;19.33;55.07;100301.53;4969098;28;99418;-71
2023/04/23 03:02:38;;;;;;;11.43;8.68;;;;;;;19.44;53.81;100295.31;4970207;28;99407;-71
2023/04/23 03:05:07;;;;;;;11.90;7.55;;;;;;;19.34;54.38;100294.34;4969699;28;96800;-72
2023/04/23 03:07:33;;;;;;;12.93;7.20;;;;;;;19.44;53.22;100296.16;4967946;28;96965;-72
2023/04/23 03:09:59;;;;;;;14.82;8.35;;;;;;;19.56;52.73;100296.22;4968527;28;97641;-71
2023/04/23 03:12:26;;;;;;;11.88;7.03;;;;;;;19.49;52.85;100296.69;4970182;28;101472;-72
2023/04/23 03:14:52;;;;;;;13.88;7.13;;;;;;;19.53;52.40;100293.78;4969730;28;99718;-72
2023/04/23 03:17:18;;;;;;;8.60;6.68;;;;;;;19.37;53.14;100286.91;4965833;28;97026;-72
2023/04/23 03:19:45;;;;;;;15.32;7.10;;;;;;;19.50;52.37;100293.03;4965560;28;98961;-72
2023/04/23 03:22:13;;;;;;;12.73;7.47;;;;;;;19.68;52.18;100284.53;4969749;28;98920;-72
2023/04/23 03:24:39;;;;;;;12.93;7.63;;;;;;;19.74;52.16;100286.69;4967249;28;96846;-71
2023/04/23 03:27:05;;;;;;;12.13;7.00;;;;;;;19.67;52.35;100288.16;4968768;28;97467;-71
2023/04/23 03:29:32;;;;;;;12.95;6.45;;;;;;;19.78;51.68;100282.78;4961994;28;99180;-71
2023/04/23 03:31:58;;;;;;;12.02;7.38;;;;;;;19.58;53.66;100284.38;4966522;28;99151;-71
2023/04/23 03:34:25;;;;;;;15.18;7.55;;;;;;;19.80;53.40;100288.88;4967249;28;98116;-71
2023/04/23 03:36:51;;;;;;;13.20;6.95;;;;;;;19.74;52.78;100282.19;4963750;28;98985;-72
2023/04/23 03:39:19;;;;;;;10.13;6.53;;;;;;;19.75;52.88;100285.72;4967829;28;98986;-72
2023/04/23 03:41:46;;;;;;;10.38;7.20;;;;;;;19.69;53.11;100287.06;4966077;28;101602;-71
2023/04/23 03:44:12;;;;;;;14.52;7.00;;;;;;;19.84;52.86;100284.97;4966644;28;96839;-71
2023/04/23 03:46:38;;;;;;;12.70;7.85;;;;;;;19.48;54.40;100283.44;4965653;28;96864;-71
2023/04/23 03:49:05;;;;;;;10.40;7.28;;;;;;;19.59;53.87;100279.88;4966014;28;96964;-70
2023/04/23 03:51:31;;;;;;;10.82;7.15;;;;;;;19.84;53.26;100282.28;4965293;28;98951;-70
2023/04/23 03:53:58;;;;;;;13.07;7.22;;;;;;;19.70;52.88;100279.88;4968707;28;96807;-71
2023/04/23 03:56:26;;;;;;;10.43;6.82;;;;;;;19.48;53.81;100280.75;4967575;28;96896;-71
2023/04/23 03:58:52;;;;;;;9.45;6.63;;;;;;;19.71;52.67;100284.25;4965116;28;99038;-71
2023/04/23 04:01:19;;;;;;;11.77;7.07;;;;;;;19.56;53.35;100285.50;4965660;28;101629;-70
2023/04/23 04:03:45;;;;;;;11.45;6.90;;;;;;;19.69;53.73;100281.69;4968979;28;96871;-70
2023/04/23 04:06:12;;;;;;;11.80;7.00;;;;;;;19.58;53.66;100275.50;4962919;28;96888;-71
2023/04/23 04:08:38;;;;;;;10.90;6.88;;;;;;;19.66;54.22;100275.75;4961976;28;99122;-71
2023/04/23 04:11:05;;;;;;;10.35;7.25;;;;;;;19.74;53.22;100265.25;4968943;28;97733;-71
2023/04/23 04:13:32;;;;;;;10.88;7.18;;;;;;;19.73;54.75;100258.19;4963998;28;96894;-71
2023/04/23 04:15:59;;;;;;;8.57;6.75;;;;;;;19.77;54.47;100273.03;4966788;28;96829;-71
2023/04/23 04:18:25;;;;;;;10.45;6.43;;;;;;;19.66;53.31;100270.38;4960502;28;99222;-70
2023/04/23 04:20:52;;;;;;;14.00;7.35;;;;;;;19.70;53.85;100274.50;4965643;28;98981;-70
2023/04/23 04:23:18;;;;;;;10.00;6.63;;;;;;;19.55;54.50;100273.09;4968088;28;97019;-71
2023/04/23 04:25:45;;;;;;;8.60;6.47;;;;;;;19.57;54.76;100271.97;4968135;28;96911;-71
2023/04/23 04:28:11;;;;;;;11.70;6.03;;;;;;;19.41;54.34;100282.19;4964670;28;99098;-72
2023/04/23 04:30:41;;;;;;;16.00;6.70;;;;;;;19.50;54.95;100282.31;4967672;28;98846;-71
2023/04/23 04:33:07;;;;;;;10.30;6.43;;;;;;;19.64;54.05;100272.31;4959328;28;97256;-70
2023/04/23 04:35:34;;;;;;;9.05;6.65;;;;;;;19.53;54.33;100259.78;4967402;28;96977;-71
2023/04/23 04:38:01;;;;;;;10.20;6.60;;;;;;;19.84;53.38;100268.88;4965880;28;99398;-71
2023/04/23 04:40:27;;;;;;;10.88;6.60;;;;;;;19.78;53.96;100274.75;4964083;28;100466;-70
2023/04/23 04:42:56;;;;;;;11.48;6.15;;;;;;;19.73;54.12;100285.84;4968376;28;96852;-70
2023/04/23 04:45:22;;;;;;;14.80;6.93;;;;;;;19.79;53.73;100281.81;4968903;28;97221;-70
2023/04/23 04:47:51;;;;;;;9.88;6.28;;;;;;;19.75;53.68;100278.53;4964630;28;101825;-70
2023/04/23 04:50:17;;;;;;;9.75;5.97;;;;;;;19.59;54.08;100291.47;4967362;28;98900;-70
2023/04/23 04:52:44;;;;;;;11.35;5.50;;;;;;;19.50;55.00;100290.34;4964251;28;97235;-71
2023/04/23 04:55:10;;;;;;;12.52;5.80;;;;;;;19.46;55.44;100288.91;4966944;28;96945;-70
2023/04/23 04:57:37;;;;;;;8.30;6.22;;;;;;;19.67;54.87;100290.84;4967523;28;99205;-70
2023/04/23 05:00:19;;;;;;;10.65;5.88;;;;;;;19.50;55.85;100285.00;4965287;28;98856;-72
2023/04/23 05:02:47;;;;;;;10.27;6.18;;;;;;;19.50;55.79;100286.81;4963735;28;96724;-70
2023/04/23 05:05:15;;;;;;;9.85;6.47;;;;;;;19.41;56.31;100287.53;4969085;28;96816;-70
2023/04/23 05:07:41;;;;;;;9.60;5.95;;;;;;;19.25;56.87;100289.72;4967119;28;101061;-72
2023/04/23 05:10:08;;;;;;;8.10;5.70;;;;;;;19.32;57.04;100296.28;4966901;28;99172;-71
2023/04/23 05:12:36;;;;;;;8.10;5.53;;;;;;;19.47;56.56;100289.75;4970004;28;97572;-71
2023/04/23 05:15:03;;;;;;;11.02;7.88;;;;;;;19.45;56.99;100292.53;4967677;28;97655;-72
2023/04/23 05:17:29;;;;;;;6.85;5.68;;;;;;;19.65;56.47;100295.47;4967282;28;99554;-72
2023/04/23 05:19:56;;;;;;;13.45;6.38;;;;;;;19.69;56.07;100299.63;4966498;28;99275;-72
2023/04/23 05:22:24;;;;;;;8.13;5.88;;;;;;;19.73;56.11;100295.72;4968052;28;96880;-73
2023/04/23 05:24:50;;;;;;;7.38;4.97;;;;;;;20.01;55.34;100303.25;4962841;28;96845;-72
2023/04/23 05:27:16;;;;;;;15.25;5.75;;;;;;;19.94;55.14;100299.34;4967087;28;101488;-72
2023/04/23 05:29:42;;;;;;;9.77;5.07;;;;;;;19.95;55.35;100300.19;4960970;28;99472;-72
2023/04/23 05:32:09;;;;;;;9.13;5.07;;;;;;;20.05;55.35;100295.78;4967306;28;97167;-70
2023/04/23 05:34:35;;;;;;;10.32;5.90;;;;;;;20.24;54.39;100294.13;4966816;28;96888;-71
2023/04/23 05:37:02;;;;;;;8.73;5.07;;;;;;;20.15;54.40;100297.56;4965894;28;98391;-71
2023/04/23 05:39:30;;;;;;;10.45;5.70;;;;;;;20.19;54.51;100296.34;4966267;28;98820;-71
2023/04/23 05:41:56;;;;;;;8.68;5.20;;;;;;;20.09;55.09;100299.91;4965511;28;97665;-71
2023/04/23 05:44:23;;;;;;;8.65;4.85;;;;;;;20.00;55.13;100306.91;4966379;28;97041;-72
2023/04/23 05:46:49;;;;;;;7.30;4.82;;;;;;;19.78;55.74;100312.28;4967849;28;99476;-73
2023/04/23 05:49:16;;;;;;;9.55;5.15;;;;;;;19.79;56.08;100313.97;4965055;28;99198;-71
2023/04/23 05:51:42;;;;;;;7.20;5.35;;;;;;;19.69;56.68;100307.66;4965146;28;96806;-71
2023/04/23 05:54:08;;;;;;;12.60;5.15;;;;;;;19.76;56.10;100312.38;4965176;28;97299;-71
2023/04/23 05:56:36;;;;;;;9.43;5.13;;;;;;;19.80;56.22;100311.19;4966230;28;98708;-71
2023/04/23 05:59:02;;;;;;;13.45;5.45;;;;;;;19.88;55.92;100308.75;4962920;28;98992;-71
2023/04/23 06:01:30;;;;;;;7.90;4.85;;;;;;;20.02;56.03;100310.28;4965445;28;96734;-73
2023/04/23 06:03:57;;;;;;;7.57;4.97;;;;;;;20.04;56.17;100315.53;4961431;28;97514;-71
2023/04/23 06:06:23;;;;;;;7.97;5.15;;;;;;;20.02;56.21;100314.81;4958966;28;99251;-70
2023/04/23 06:08:50;;;;;;;5.60;4.90;;;;;;;20.06;56.35;100311.75;4964513;28;99450;-70
2023/04/23 06:11:17;;;;;;;7.57;5.20;;;;;;;19.97;56.38;100312.50;4962849;28;96922;-71
2023/04/23 06:13:45;;;;;;;11.68;5.63;;;;;;;20.11;56.07;100304.19;4965289;28;97595;-70
2023/04/23 06:16:11;;;;;;;11.13;4.88;;;;;;;20.15;55.95;100315.53;4969724;28;99238;-70
2023/04/23 06:18:38;;;;;;;6.38;4.70;;;;;;;20.30;55.63;100315.09;4961424;28;97512;-71
2023/04/23 06:21:05;;;;;;;8.40;5.07;;;;;;;20.40;55.88;100317.06;4964301;28;96882;-70
2023/04/23 06:23:32;;;;;;;7.45;4.95;;;;;;;20.23;56.18;100319.25;4963993;28;96889;-69
2023/04/23 06:25:59;;;;;;;8.48;5.38;;;;;;;20.36;55.87;100318.28;4968478;28;98955;-70
2023/04/23 06:28:25;;;;;;;9.20;5.10;;;;;;;20.10;56.38;100321.25;4967227;28;99469;-69
2023/04/23 06:30:53;;;;;;;8.48;4.82;;;;;;;20.19;56.39;100311.59;4970510;28;97033;-70
2023/04/23 06:33:20;;;;;;;8.68;4.55;;;;;;;20.11;56.51;100319.41;4969858;28;98512;-69
2023/04/23 06:35:46;;;;;;;6.35;4.85;;;;;;;20.29;56.26;100310.69;4967524;28;98547;-70
2023/04/23 06:38:13;;;;;;;8.30;5.07;;;;;;;20.18;56.44;100318.78;4969493;28;99414;-70
2023/04/23 06:40:45;;;;;;;12.30;4.68;;;;;;;20.34;55.89;100317.56;4970492;28;98698;-71
2023/04/23 06:43:11;;;;;;;7.20;4.93;;;;;;;20.36;55.88;100318.28;4966745;28;97351;-70
2023/04/23 06:45:38;;;;;;;7.13;4.43;;;;;;;20.29;56.23;100328.63;4964802;28;99521;-70
2023/04/23 06:48:05;;;;;;;6.82;4.40;;;;;;;20.34;55.95;100322.94;4968299;28;101061;-70
2023/04/23 06:50:32;;;;;;;8.25;4.43;;;;;;;20.03;57.27;100325.41;4965316;28;96872;-70
2023/04/23 06:52:59;;;;;;;5.70;4.40;;;;;;;20.05;57.01;100325.28;4968973;28;97037;-71
2023/04/23 06:55:25;;;;;;;11.13;4.63;;;;;;;19.97;57.93;100323.22;4970672;28;99450;-70
2023/04/23 06:57:51;;;;;;;5.65;4.32;;;;;;;20.08;57.89;100319.69;4961685;28;99881;-70
2023/04/23 07:00:18;;;;;;;8.65;4.60;;;;;;;19.80;58.33;100329.09;4968991;28;96862;-70
2023/04/23 07:02:45;;;;;;;9.73;4.85;;;;;;;19.82;58.76;100330.66;4967645;28;96983;-70
2023/04/23 07:05:13;;;;;;;4.65;3.97;;;;;;;19.73;58.85;100322.53;4970287;28;99039;-70
2023/04/23 07:07:42;;;;;;;7.35;4.13;;;;;;;19.55;59.55;100332.03;4964876;28;99108;-70
2023/04/23 07:10:10;;;;;;;5.22;4.10;;;;;;;19.05;61.75;100340.31;4966924;28;97202;-69
2023/04/23 07:12:36;;;;;;;5.53;4.15;;;;;;;18.76;63.30;100344.38;4967257;28;98711;-70
2023/04/23 07:15:03;;;;;;;9.90;4.40;;;;;;;18.89;63.17;100339.81;4954849;28;98976;-71
2023/04/23 07:17:30;;;;;;;6.03;4.20;;;;;;;19.17;62.71;100337.66;4967633;28;99093;-70
2023/04/23 07:19:57;;;;;;;7.90;4.78;;;;;;;19.14;63.96;100338.75;4968148;28;98945;-71
2023/04/23 07:22:25;;;;;;;6.35;4.40;;;;;;;19.26;63.21;100332.44;4969712;28;97781;-70
2023/04/23 07:24:52;;;;;;;7.50;4.97;;;;;;;19.37;63.26;100337.81;4969385;28;100602;-70
2023/04/23 07:27:19;;;;;;;7.47;4.75;;;;;;;19.35;63.23;100334.44;4962629;28;100125;-71
2023/04/23 07:29:45;;;;;;;8.60;4.65;;;;;;;19.41;62.95;100339.31;4963647;28;97172;-71
2023/04/23 07:32:12;;;;;;;6.30;4.50;;;;;;;19.47;62.77;100341.53;4968927;28;96901;-70
2023/04/23 07:34:38;;;;;;;9.10;4.40;;;;;;;19.29;63.21;100334.91;4961829;28;101738;-70
2023/04/23 07:37:05;;;;;;;8.25;4.68;;;;;;;19.49;62.73;100347.59;4965082;28;100798;-71
2023/04/23 07:39:33;;;;;;;5.95;4.82;;;;;;;19.40;63.05;100350.97;4966352;28;96949;-71
2023/04/23 07:42:00;;;;;;;10.05;4.90;;;;;;;19.40;63.14;100348.31;4967359;28;97129;-70
2023/04/23 07:44:27;;;;;;;6.53;4.80;;;;;;;19.31;63.51;100350.84;4959768;28;101791;-71
2023/04/23 07:46:54;;;;;;;6.97;4.07;;;;;;;19.41;63.37;100352.69;4968298;28;100455;-71
2023/04/23 07:49:20;;;;;;;5.10;4.05;;;;;;;19.70;62.65;100353.09;4965843;28;98694;-71
2023/04/23 07:51:47;;;;;;;9.30;4.43;;;;;;;19.48;63.42;100353.97;4964430;28;98188;-71
2023/04/23 07:54:14;;;;;;;7.10;4.75;;;;;;;19.63;62.60;100356.38;4964104;28;98939;-68
2023/04/23 07:56:42;;;;;;;9.05;4.47;;;;;;;19.84;61.99;100360.03;4964437;28;98886;-71
2023/04/23 07:59:09;;;;;;;7.60;4.40;;;;;;;19.52;62.77;100359.06;4953340;28;97012;-71
2023/04/23 08:01:36;;;;;;;8.50;4.78;;;;;;;19.48;63.08;100353.97;4956963;28;97527;-73
2023/04/23 08:04:03;;;;;;;8.55;4.22;;;;;;;19.44;63.21;100360.47;4961048;28;99079;-72
2023/04/23 08:06:30;;;;;;;6.60;4.30;;;;;;;19.52;62.93;100356.38;4962057;28;101372;-72
2023/04/23 08:08:56;;;;;;;7.65;4.43;;;;;;;19.38;63.94;100360.97;4957737;28;97177;-73
2023/04/23 08:11:23;;;;;;;6.15;4.72;;;;;;;19.79;62.58;100362.25;4963776;28;97117;-73
2023/04/23 08:13:51;;;;;;;10.55;5.40;;;;;;;19.85;62.52;100359.94;4957996;28;97851;-72
2023/04/23 08:16:18;;;;;;;8.55;4.80;;;;;;;19.70;63.20;100362.97;4963751;28;100392;-73
2023/04/23 08:18:44;;;;;;;6.35;4.63;;;;;;;19.94;62.43;100361.03;4962149;28;97778;-74
2023/04/23 08:21:11;;;;;;;8.90;4.97;;;;;;;19.96;62.33;100353.69;4966923;28;96782;-72
2023/04/23 08:23:38;;;;;;;8.57;4.88;;;;;;;20.14;61.55;100352.22;4958040;28;99644;-70
2023/04/23 08:26:05;;;;;;;7.90;4.80;;;;;;;20.41;61.13;100345.59;4956724;28;98227;-70
2023/04/23 08:28:31;;;;;;;7.28;4.68;;;;;;;20.28;61.02;100354.59;4961475;28;97746;-70
2023/04/23 08:30:59;;;;;;;8.38;5.10;;;;;;;20.33;61.54;100356.97;4959305;28;98454;-70
2023/04/23 08:33:25;;;;;;;5.93;4.35;;;;;;;20.42;60.90;100353.50;4962690;28;98390;-70
2023/04/23 08:35:52;;;;;;;6.95;4.72;;;;;;;20.53;60.92;100353.50;4966093;28;98936;-69
2023/04/23 08:38:18;;;;;;;6.30;4.70;;;;;;;20.47;61.00;100359.38;4966426;28;97139;-71
2023/04/23 08:40:46;;;;;;;5.25;4.72;;;;;;;20.58;60.27;100359.31;4965561;28;96860;-71
2023/04/23 08:43:16;;;;;;;6.93;5.00;;;;;;;20.57;59.75;100362.13;4964952;28;100043;-71
2023/04/23 08:45:46;;;;;;;9.80;5.13;;;;;;;20.95;59.09;100367.81;4965168;28;98860;-71
2023/04/23 08:48:14;;;;;;;7.03;5.18;;;;;;;21.08;58.02;100357.75;4962566;28;97200;-71
2023/04/23 08:50:43;;;;;;;8.88;5.35;;;;;;;21.66;57.04;100362.66;4963773;28;97154;-71
2023/04/23 08:53:09;;;;;;;9.27;5.18;;;;;;;21.71;56.56;100352.34;4963444;28;99003;-71
2023/04/23 08:55:36;;;;;;;5.30;4.78;;;;;;;21.78;56.16;100358.88;4966066;28;99248;-71
2023/04/23 08:58:05;;;;;;;8.15;5.63;;;;;;;21.50;56.40;100362.28;4956900;28;98941;-70
2023/04/23 09:00:32;;;;;;;9.25;5.55;;;;;;;20.97;58.65;100355.13;4966037;28;97019;-73
2023/04/23 09:02:59;;;;;;;9.23;5.32;;;;;;;20.31;59.49;100369.63;4964903;28;99472;-70
2023/04/23 09:05:27;;;;;;;6.30;4.85;;;;;;;19.83;60.98;100371.72;4957875;28;99279;-71
2023/04/23 09:07:54;;;;;;;7.55;5.68;;;;;;;19.97;60.97;100376.00;4952989;28;96931;-72
2023/04/23 09:10:20;;;;;;;7.55;5.47;;;;;;;19.71;62.40;100370.88;4961057;28;97088;-73
2023/04/23 09:12:47;;;;;;;5.78;5.22;;;;;;;19.72;62.24;100364.56;4966049;28;99192;-74
2023/04/23 09:15:13;;;;;;;8.70;5.40;;;;;;;19.70;62.30;100374.53;4955027;28;99275;-73
2023/04/23 09:17:41;;;;;;;7.38;5.65;;;;;;;19.75;61.79;100377.72;4962213;28;98128;-73
2023/04/23 09:20:09;;;;;;;6.20;5.22;;;;;;;19.46;63.26;100374.66;4949735;28;98360;-74
2023/04/23 09:22:41;;;;;;;8.70;5.05;;;;;;;19.47;63.70;100380.88;4956529;28;101659;-74
2023/04/23 09:25:09;;;;;;;7.03;5.18;;;;;;;19.49;63.68;100379.75;4964672;28;99413;-73
2023/04/23 09:27:36;;;;;;;6.35;5.55;;;;;;;19.59;63.27;100393.31;4959435;28;97252;-73
2023/04/23 09:30:06;;;;;;;8.52;5.43;;;;;;;19.68;62.77;100386.38;4963264;28;96999;-74
2023/04/23 09:32:35;;;;;;;8.32;4.80;;;;;;;19.24;62.73;100405.84;4962528;28;99211;-73
2023/04/23 09:35:06;;;;;;;4.38;3.53;;;;;;;19.33;61.26;100408.69;4966431;28;99619;-74
2023/04/23 09:37:33;;;;;;;4.78;3.58;;;;;;;19.61;60.58;100404.75;4958177;28;96990;-72
2023/04/23 09:40:03;;;;;;;4.72;3.22;;;;;;;19.96;58.32;100406.47;4960293;28;96910;-73
2023/04/23 09:42:29;;;;;;;3.72;2.80;;;;;;;19.96;58.09;100407.31;4957036;28;99633;-73
2023/04/23 09:44:57;;;;;;;3.70;2.53;;;;;;;20.01;57.46;100407.84;4960212;28;99438;-73
2023/04/23 09:47:24;;;;;;;6.15;2.90;;;;;;;19.63;57.84;100404.63;4955073;28;96913;-72
2023/04/23 09:49:50;;;;;;;3.40;2.50;;;;;;;19.93;57.47;100409.41;4967272;28;97255;-73
2023/04/23 09:52:18;;;;;;;2.88;2.35;;;;;;;19.86;57.25;100407.22;4964869;28;99843;-72
2023/04/23 09:54:46;;;;;;;2.97;2.28;;;;;;;19.64;58.27;100417.06;4968159;28;102079;-73
2023/04/23 09:57:13;;;;;;;3.00;2.80;;;;;;;19.73;58.06;100422.56;4963492;28;98530;-72
2023/04/23 09:59:41;;;;;;;3.22;2.78;;;;;;;19.60;59.03;100415.59;4960887;28;96943;-74
2023/04/23 10:02:09;;;;;;;3.20;2.90;;;;;;;19.74;58.24;100420.72;4964276;28;99549;-73
2023/04/23 10:04:36;;;;;;;4.15;3.00;;;;;;;19.74;58.29;100418.06;4970946;28;101854;-73
2023/04/23 10:07:07;;;;;;;4.93;3.33;;;;;;;19.66;58.42;100425.84;4969814;28;97364;-73
2023/04/23 10:09:34;;;;;;;7.50;3.13;;;;;;;19.25;58.58;100427.16;4967134;28;97318;-73
2023/04/23 10:12:02;;;;;;;3.47;3.17;;;;;;;19.31;58.35;100431.19;4958972;28;99061;-73
2023/04/23 10:14:30;;;;;;;5.90;3.28;;;;;;;19.41;58.53;100427.72;4963125;28;97825;-74
2023/04/23 10:16:59;;;;;;;3.28;2.97;;;;;;;19.50;58.31;100435.06;4965973;28;99787;-72
2023/04/23 10:19:26;;;;;;;5.97;3.67;;;;;;;19.77;57.31;100433.88;4962127;28;96887;-73
2023/04/23 10:21:54;;;;;;;4.55;3.55;;;;;;;19.53;58.59;100441.16;4963630;28;99571;-72
2023/04/23 10:24:24;;;;;;;3.88;3.55;;;;;;;19.52;59.14;100439.44;4966968;28;99210;-73
2023/04/23 10:26:52;;;;;;;4.22;3.83;;;;;;;19.62;58.83;100441.31;4963378;28;98722;-73
2023/04/23 10:29:24;;;;;;;5.00;4.50;;;;;;;19.69;58.11;100447.06;4956252;28;98316;-73
2023/04/23 10:31:53;;;;;;;8.40;6.75;;;;;;;18.68;58.99;100449.31;4961743;28;100760;-72
2023/04/23 10:34:20;;;;;;;9.85;7.28;;;;;;;18.76;58.17;100445.22;4966441;28;99135;-73
2023/04/23 10:36:47;;;;;;;8.38;7.00;;;;;;;19.25;56.75;100437.88;4964325;28;98218;-72
2023/04/23 10:39:15;;;;;;;8.00;7.20;;;;;;;19.65;55.28;100429.47;4962359;28;100071;-73
2023/04/23 10:41:43;;;;;;;9.77;7.43;;;;;;;20.43;53.36;100424.13;4963197;28;99624;-74
2023/04/23 10:44:12;;;;;;;7.65;6.05;;;;;;;20.51;52.85;100427.06;4964161;28;98933;-73
2023/04/23 10:46:38;;;;;;;7.72;6.70;;;;;;;20.92;53.12;100429.00;4956674;28;99293;-73
2023/04/23 10:49:08;;;;;;;8.68;5.65;;;;;;;21.39;50.15;100417.81;4962353;28;97068;-72
2023/04/23 10:51:35;;;;;;;7.13;6.30;;;;;;;21.76;49.08;100420.00;4959095;28;99379;-73
2023/04/23 10:54:03;;;;;;;9.20;7.07;;;;;;;21.94;48.30;100413.03;4963239;28;101471;-72
2023/04/23 10:56:30;;;;;;;7.65;6.82;;;;;;;21.85;47.53;100417.38;4960201;28;97221;-72
2023/04/23 10:58:57;;;;;;;8.88;6.95;;;;;;;21.44;49.25;100420.13;4963436;28;97136;-73
2023/04/23 11:01:25;;;;;;;7.72;6.70;;;;;;;21.40;49.32;100427.56;4961183;28;97910;-74
2023/04/23 11:03:52;;;;;;;9.60;6.72;;;;;;;21.56;48.29;100434.31;4960761;28;99592;-74
2023/04/23 11:06:55;;;;;;;7.75;6.70;;;;;;;21.18;48.65;100442.97;4959708;28;97257;-73
2023/04/23 11:09:29;;;;;;;8.73;7.00;;;;;;;21.24;48.59;100435.25;4957295;28;97253;-73
2023/04/23 11:11:56;;;;;;;8.48;7.10;;;;;;;21.72;48.28;100430.19;4962907;28;99134;-72
2023/04/23 11:14:33;;;;;;;10.02;7.32;;;;;;;21.67;46.73;100431.56;4963196;28;98978;-75
2023/04/23 11:17:15;;;;;;;7.85;6.60;;;;;;;22.05;46.73;100425.56;4965676;28;100317;-73
2023/04/23 11:20:03;;;;;;;10.05;7.03;;;;;;;21.92;46.77;100439.22;4956308;28;96899;-72